NCAR-RAP Real-Time Weather Data

Output produced by METARs form (16 August 2018  19:23 UTC)
found at http://weather.rap.ucar.edu/surface/
 
RJSF 161100Z VRB01KT 9999 FEW005 SCT050 BKN100 21/21 Q1006
RJSF 161000Z 14004KT 9999 FEW005 BKN050 BKN120 21/21 Q1006
RJSF 160900Z 11003KT 070V190 9999 FEW005 SCT045 BKN150 21/21 Q1005
RJSF 160800Z 10004KT 060V140 9999 -SHRA FEW005 SCT050 BKN110 22/21 Q1005
RJSF 160737Z 16005KT 100V230 9999 -SHRA FEW007 BKN045 BKN070 22/21 Q1005 RMK 1ST007 5CU045 7AC070 A2969
RJSF 160725Z VRB04KT 9999 SHRA FEW007 BKN045 BKN070 23/20 Q1005 RMK 1ST007 5CU045 7AC070 A2969
RJSF 160700Z 12005KT 9999 -SHRA FEW007 FEW030CB BKN045 BKN100 22/20 Q1005
RJSF 160600Z 05004KT 030V090 9999 TS VCSH FEW007 BKN025 FEW030CB BKN070 21/20 Q1005
RJSF 160530Z 03008KT 9999 -TSRA FEW005 BKN025 FEW030CB BKN070 21/20 Q1005 RMK 1ST005 5CU025 2CB030 7AC070 A2970 MOD TS 10KM NE-E MOV E
RJSF 160519Z 36009KT 5000 R01/0900VP1800D +TSRA BR FEW005 BKN025 SCT030CB BKN070 20/20 Q1006 RMK 1ST005 5CU025 3CB030 7AC070 A2971 MOD TS OHD MOV E
RJSF 160514Z 35011KT 5000 R01/0450VP1800U TSRA BR FEW005 BKN025 SCT030CB BKN070 20/20 Q1006 RMK 1ST005 5CU025 3CB030 7AC070 A2972 MOD TS OHD MOV E
RJSF 160500Z 34012KT 1200 R01/0800VP1800D +TSRA BR FEW010 BKN025 SCT030CB 21/20 Q1006
RJSF 160400Z 21014KT 9999 VCSH FEW025 FEW030CB SCT035 BKN/// 29/23 Q1004
RJSF 160300Z 21013KT 170V240 9999 FEW020 SCT030 BKN130 29/23 Q1004
RJSF 160200Z 21008KT 9999 FEW015 SCT025 BKN030 28/24 Q1005
RJSF 160100Z 18006KT 150V210 9999 FEW012 SCT015 BKN020 27/24 Q1007
RJSF 160000Z 19006KT 170V230 9999 FEW009 SCT012 BKN015 26/24 Q1007
RJSF 152300Z 19006KT 9999 FEW008 BKN010 BKN012 25/23 Q1008
RJSF 152200Z 19007KT 9999 FEW008 SCT010 BKN012 25/23 Q1008
RJSF 152140Z 18006KT 9999 FEW008 BKN010 BKN012 24/23 Q1008 RMK 1ST008 5ST010 7CU012 A2977
RJSF 151123Z 20003KT 160V250 9999 -SHRA FEW015 FEW020CB BKN030 25/24 Q1013 RMK 2CU015 1CB020 6CU030 A2993 CB 20KM W MOV NE
RJSF 151100Z 23003KT 9999 -TSRA FEW015 SCT020CB BKN030 26/25 Q1013
RJSF 151000Z 18005KT 9999 -TSRA FEW020 SCT025CB BKN030 26/24 Q1013
RJSF 150900Z 18010KT 9999 TS VCSH FEW030 FEW035CB SCT050 BKN/// 28/24 Q1012
RJSF 150800Z 18006KT 9999 FEW030 SCT050 BKN/// 29/23 Q1012
RJSF 150700Z 21009KT 9999 FEW025 SCT030 BKN/// 31/23 Q1012
RJSF 150600Z 22008KT 190V250 9999 FEW025 SCT040 BKN/// 31/25 Q1013
RJSF 150500Z 25007KT 190V300 9999 FEW025 SCT045 BKN/// 31/25 Q1013
RJSF 150400Z 22005KT 190V300 9999 FEW020 SCT025 BKN/// 30/24 Q1014
RJSF 150300Z 20006KT 170V240 9999 FEW020 SCT025 BKN/// 30/25 Q1014
RJSF 150200Z 21006KT 150V260 9999 FEW015 BKN/// 30/25 Q1015
RJSF 150100Z 20005KT 170V240 9999 FEW012 SCT015 BKN/// 28/24 Q1016
RJSF 150000Z 22005KT 190V270 9999 FEW009 SCT010 BKN012 27/25 Q1016
RJSF 142333Z 19006KT 9999 FEW007 SCT008 BKN010 27/24 Q1016 RMK 1ST007 3ST008 7ST010 A3002
RJSF 142300Z 18006KT 150V230 9999 FEW007 BKN008 BKN009 26/24 Q1016
RJSF 142200Z 17005KT 9999 FEW007 BKN008 BKN009 24/23 Q1016
RJSF 142140Z 17004KT 9999 FEW007 BKN008 BKN009 24/23 Q1016 RMK 1ST007 5ST008 7ST009 A3001
RJSF 141100Z 14004KT CAVOK 26/24 Q1015
RJSF 141000Z VRB02KT 9999 FEW050 SCT070 BKN/// 27/23 Q1015
RJSF 140900Z VRB02KT 9999 FEW050 SCT070 BKN/// 27/24 Q1014
RJSF 140800Z 12003KT 9999 FEW050 SCT070 28/23 Q1014